createdAt,value
2022-08-12T00:02:15.309Z,2.25
2022-08-12T00:04:37.161Z,2.50
2022-08-12T00:07:05.641Z,2.20
2022-08-12T00:09:28.162Z,1.90
2022-08-12T00:11:51.980Z,2.58
2022-08-12T00:14:24.956Z,2.30
2022-08-12T00:16:50.150Z,2.42
2022-08-12T00:19:12.668Z,2.05
2022-08-12T00:21:38.036Z,2.25
2022-08-12T00:24:01.300Z,2.58
2022-08-12T00:26:47.773Z,2.00
2022-08-12T00:29:09.948Z,2.58
2022-08-12T00:31:37.746Z,2.25
2022-08-12T00:33:59.289Z,2.40
2022-08-12T00:36:34.850Z,2.30
2022-08-12T00:39:08.401Z,2.45
2022-08-12T00:41:39.212Z,2.30
2022-08-12T00:43:56.613Z,2.53
2022-08-12T00:46:24.486Z,2.22
2022-08-12T00:48:27.015Z,2.70
2022-08-12T00:50:32.389Z,3.45
2022-08-12T00:52:36.176Z,2.67
2022-08-12T00:55:06.555Z,2.90
2022-08-12T00:57:37.156Z,2.83
2022-08-12T00:59:53.080Z,2.42
2022-08-12T01:02:11.096Z,2.50
2022-08-12T01:04:39.073Z,2.75
2022-08-12T01:07:05.590Z,2.45
2022-08-12T01:09:29.046Z,2.30
2022-08-12T01:12:00.535Z,3.28
2022-08-12T01:14:03.667Z,2.75
2022-08-12T01:16:09.159Z,2.40
2022-08-12T01:18:14.344Z,2.63
2022-08-12T01:20:36.078Z,2.97
2022-08-12T01:23:18.803Z,2.53
2022-08-12T01:25:25.008Z,2.50
2022-08-12T01:27:40.717Z,3.22
2022-08-12T01:29:52.779Z,2.40
2022-08-12T01:32:23.833Z,5.45
2022-08-12T01:34:36.136Z,3.22
2022-08-12T01:36:46.782Z,2.92
2022-08-12T01:38:59.490Z,2.58
2022-08-12T01:41:18.460Z,3.00
2022-08-12T01:44:01.371Z,3.05
2022-08-12T01:46:16.910Z,2.50
2022-08-12T01:52:21.551Z,2.53
2022-08-12T01:54:19.838Z,2.65
2022-08-12T01:56:26.540Z,2.67
2022-08-12T01:59:01.363Z,2.45
2022-08-12T02:01:24.035Z,2.88
2022-08-12T02:04:03.995Z,2.65
2022-08-12T02:06:45.101Z,2.75
2022-08-12T02:09:34.849Z,2.60
2022-08-12T02:12:06.232Z,2.50
2022-08-12T02:14:15.595Z,2.67
2022-08-12T02:16:46.750Z,3.38
2022-08-12T02:19:32.870Z,3.47
2022-08-12T02:21:43.069Z,3.08
2022-08-12T02:23:45.579Z,3.08
2022-08-12T02:25:50.590Z,3.47
2022-08-12T02:27:54.615Z,3.15
2022-08-12T02:30:15.644Z,4.07
2022-08-12T02:32:24.818Z,3.35
2022-08-12T02:34:35.785Z,2.30
2022-08-12T02:36:45.264Z,2.70
2022-08-12T02:38:55.679Z,2.63
2022-08-12T02:41:03.760Z,2.78
2022-08-12T02:43:32.996Z,2.80
2022-08-12T02:45:54.011Z,3.20
2022-08-12T02:48:06.756Z,2.72
2022-08-12T02:50:20.678Z,2.40
2022-08-12T02:52:35.233Z,2.50
2022-08-12T02:54:42.287Z,2.38
2022-08-12T02:56:50.708Z,3.15
2022-08-12T02:58:58.829Z,2.97
2022-08-12T03:01:09.383Z,2.40
2022-08-12T03:03:15.045Z,2.10
2022-08-12T03:05:23.724Z,2.10
2022-08-12T03:07:59.855Z,2.22
2022-08-12T03:10:15.809Z,2.17
2022-08-12T03:12:49.766Z,2.25
2022-08-12T03:15:03.881Z,2.50
2022-08-12T03:17:30.738Z,2.45
2022-08-12T03:19:32.732Z,2.83
2022-08-12T03:21:55.417Z,2.33
2022-08-12T03:24:02.725Z,2.60
2022-08-12T03:26:13.554Z,2.03
2022-08-12T03:28:40.273Z,2.35
2022-08-12T03:30:56.218Z,2.25
2022-08-12T03:33:01.471Z,2.55
2022-08-12T03:35:08.763Z,2.22
2022-08-12T03:37:37.640Z,2.00
2022-08-12T03:39:43.904Z,2.20
2022-08-12T03:42:09.190Z,2.00
2022-08-12T03:44:46.229Z,2.25
2022-08-12T03:47:21.285Z,2.00
2022-08-12T03:49:43.961Z,2.30
2022-08-12T03:52:06.653Z,3.00
2022-08-12T03:54:27.592Z,2.88
2022-08-12T03:56:48.634Z,2.95
2022-08-12T03:59:11.788Z,2.20
2022-08-12T04:01:26.056Z,2.50
2022-08-12T04:03:57.534Z,2.00
2022-08-12T04:06:08.762Z,2.65
2022-08-12T04:08:22.753Z,2.47
2022-08-12T04:10:48.372Z,1.98
2022-08-12T04:13:17.133Z,2.00
2022-08-12T04:15:26.049Z,2.42
2022-08-12T04:18:06.365Z,2.22
2022-08-12T04:20:02.156Z,2.60
2022-08-12T04:22:04.326Z,2.47
2022-08-12T04:24:07.161Z,1.98
2022-08-12T04:26:24.429Z,3.75
2022-08-12T04:28:29.266Z,2.22
2022-08-12T04:30:36.648Z,2.10
2022-08-12T04:32:48.968Z,2.58
2022-08-12T04:34:52.558Z,2.33
2022-08-12T04:37:00.272Z,2.28
2022-08-12T04:39:06.262Z,2.78
2022-08-12T04:41:11.085Z,2.13
2022-08-12T04:43:59.885Z,2.63
2022-08-12T04:45:39.038Z,2.53
2022-08-12T04:47:44.515Z,2.90
2022-08-12T04:49:50.937Z,3.00
2022-08-12T04:51:57.634Z,2.63
2022-08-12T04:54:05.344Z,2.70
2022-08-12T04:56:12.662Z,2.97
2022-08-12T04:58:29.337Z,2.83
2022-08-12T05:00:34.132Z,2.97
2022-08-12T05:02:40.308Z,2.50
2022-08-12T05:04:47.800Z,2.38
2022-08-12T05:06:49.720Z,2.10
2022-08-12T05:09:00.063Z,1.90
2022-08-12T05:11:06.351Z,1.60
2022-08-12T05:13:40.182Z,1.80
2022-08-12T05:16:04.619Z,2.10
2022-08-12T05:18:19.209Z,2.58
2022-08-12T05:20:26.259Z,1.83
2022-08-12T05:22:29.197Z,2.13
2022-08-12T05:24:31.212Z,1.75
2022-08-12T05:26:33.204Z,1.92
2022-08-12T05:28:36.747Z,2.50
2022-08-12T05:30:49.060Z,2.47
2022-08-12T05:32:53.700Z,2.70
2022-08-12T05:35:09.383Z,2.40
2022-08-12T05:37:12.316Z,2.80
2022-08-12T05:39:15.317Z,2.78
2022-08-12T05:41:20.765Z,2.17
2022-08-12T05:43:25.055Z,2.25
2022-08-12T05:45:30.924Z,2.42
2022-08-12T05:47:44.904Z,2.15
2022-08-12T05:49:59.666Z,2.30
2022-08-12T05:52:03.840Z,2.08
2022-08-12T05:54:11.798Z,2.05
2022-08-12T05:56:27.103Z,2.15
2022-08-12T05:58:29.020Z,2.15
2022-08-12T06:00:39.281Z,1.85
2022-08-12T06:02:42.885Z,2.67
2022-08-12T06:04:45.849Z,1.88
2022-08-12T06:06:53.629Z,2.15
2022-08-12T06:09:06.227Z,2.25
2022-08-12T06:11:15.674Z,2.30
2022-08-12T06:13:28.920Z,2.20
2022-08-12T06:15:49.505Z,2.17
2022-08-12T06:17:53.466Z,2.13
2022-08-12T06:20:26.069Z,2.33
2022-08-12T06:22:19.386Z,2.15
2022-08-12T06:24:24.672Z,2.25
2022-08-12T06:26:26.712Z,2.22
2022-08-12T06:28:31.469Z,2.45
2022-08-12T06:30:38.688Z,2.85
2022-08-12T06:33:11.282Z,2.17
2022-08-12T06:35:26.884Z,2.60
2022-08-12T06:37:56.493Z,2.40
2022-08-12T06:40:04.967Z,3.22
2022-08-12T06:42:35.689Z,2.50
2022-08-12T06:44:39.593Z,2.65
2022-08-12T06:47:05.267Z,3.60
2022-08-12T06:49:07.280Z,2.25
2022-08-12T06:51:21.022Z,2.67
2022-08-12T06:53:29.166Z,2.25
2022-08-12T06:55:36.886Z,2.50
2022-08-12T06:58:07.440Z,2.40
2022-08-12T07:00:16.243Z,2.35
2022-08-12T07:02:20.857Z,2.42
2022-08-12T07:04:37.353Z,2.20
2022-08-12T07:06:42.197Z,2.40
2022-08-12T07:08:45.214Z,2.25
2022-08-12T07:10:59.345Z,2.35
2022-08-12T07:13:03.107Z,2.42
2022-08-12T07:15:20.417Z,2.30
2022-08-12T07:17:38.049Z,2.40
2022-08-12T07:19:50.249Z,2.72
2022-08-12T07:22:00.244Z,2.40
2022-08-12T07:24:05.299Z,2.20
2022-08-12T07:26:17.166Z,2.20
2022-08-12T07:28:25.697Z,2.08
2022-08-12T07:30:37.449Z,2.30
2022-08-12T07:32:40.599Z,1.85
2022-08-12T07:34:47.623Z,2.20
2022-08-12T07:36:56.470Z,2.10
2022-08-12T07:39:09.264Z,2.45
2022-08-12T07:41:29.035Z,1.88
2022-08-12T07:43:44.183Z,2.20
2022-08-12T07:45:49.538Z,2.05
2022-08-12T07:47:59.660Z,2.22
2022-08-12T07:50:20.054Z,2.42
2022-08-12T07:52:26.044Z,2.00
2022-08-12T07:54:28.040Z,2.00
2022-08-12T07:56:41.265Z,2.20
2022-08-12T07:58:47.128Z,2.00
2022-08-12T08:00:57.434Z,2.53
2022-08-12T08:03:01.225Z,1.95
2022-08-12T08:05:06.971Z,1.80
2022-08-12T08:07:17.139Z,2.30
2022-08-12T08:09:22.153Z,1.80
2022-08-12T08:11:50.641Z,1.90
2022-08-12T08:14:10.400Z,1.90
2022-08-12T08:16:18.188Z,2.00
2022-08-12T08:18:26.590Z,1.83
2022-08-12T08:20:35.861Z,1.85
2022-08-12T08:22:42.638Z,2.03
2022-08-12T08:24:57.820Z,1.95
2022-08-12T08:27:12.765Z,2.60
2022-08-12T08:29:18.285Z,2.10
2022-08-12T08:31:22.268Z,2.00
2022-08-12T08:34:04.832Z,2.03
2022-08-12T08:35:55.399Z,2.25
2022-08-12T08:38:10.263Z,2.40
2022-08-12T08:40:33.295Z,2.08
2022-08-12T08:42:40.636Z,2.20
2022-08-12T08:44:58.119Z,1.83
2022-08-12T08:47:05.808Z,2.00
2022-08-12T08:49:17.769Z,2.05
2022-08-12T08:51:26.230Z,2.30
2022-08-12T08:53:33.235Z,2.30
2022-08-12T08:56:04.171Z,2.00
2022-08-12T08:58:09.415Z,2.08
2022-08-12T09:00:20.006Z,2.33
2022-08-12T09:02:22.053Z,1.73
2022-08-12T09:05:12.052Z,1.70
2022-08-12T09:06:56.856Z,1.70
2022-08-12T09:09:13.351Z,1.55
2022-08-12T09:12:06.450Z,2.20
2022-08-12T09:14:19.172Z,1.88
2022-08-12T09:16:31.809Z,2.00
2022-08-12T09:18:41.155Z,1.65
2022-08-12T09:20:54.478Z,2.00
2022-08-12T09:22:58.904Z,2.15
2022-08-12T09:25:06.276Z,2.00
2022-08-12T09:27:17.062Z,2.60
2022-08-12T09:30:10.072Z,2.17
2022-08-12T09:32:09.178Z,2.75
2022-08-12T09:34:25.291Z,2.20
2022-08-12T09:36:57.691Z,2.22
2022-08-12T09:40:04.631Z,2.03
2022-08-12T09:42:41.049Z,2.85
2022-08-12T09:45:18.743Z,2.60
2022-08-12T09:47:29.745Z,2.50
2022-08-12T09:49:57.922Z,2.58
2022-08-12T09:52:07.641Z,2.50
2022-08-12T09:54:33.837Z,2.55
2022-08-12T09:57:02.707Z,2.20
2022-08-12T09:59:11.211Z,2.47
2022-08-12T10:01:23.303Z,2.30
2022-08-12T10:03:31.204Z,2.10
2022-08-12T10:06:27.386Z,2.78
2022-08-12T10:08:13.747Z,2.55
2022-08-12T10:10:24.847Z,2.53
2022-08-12T10:13:07.003Z,3.17
2022-08-12T10:15:15.368Z,2.38
2022-08-12T10:17:35.989Z,2.53
2022-08-12T10:19:59.380Z,2.60
2022-08-12T10:22:02.607Z,2.30
2022-08-12T10:24:07.525Z,2.35
2022-08-12T10:26:37.400Z,2.35
2022-08-12T10:29:03.511Z,3.13
2022-08-12T10:31:26.000Z,2.38
2022-08-12T10:33:33.685Z,2.65
2022-08-12T10:35:58.483Z,2.70
2022-08-12T10:38:35.752Z,2.78
2022-08-12T10:40:33.047Z,2.40
2022-08-12T10:43:00.576Z,2.53
2022-08-12T10:45:06.594Z,2.60
2022-08-12T10:47:26.389Z,2.38
2022-08-12T10:50:05.596Z,2.63
2022-08-12T10:52:34.597Z,2.65
2022-08-12T10:54:27.574Z,2.80
2022-08-12T10:56:34.515Z,2.50
2022-08-12T10:58:38.963Z,2.50
2022-08-12T11:00:45.182Z,2.90
2022-08-12T11:04:23.173Z,2.85
2022-08-12T11:07:07.347Z,2.97
2022-08-12T11:08:38.875Z,2.80
2022-08-12T11:10:15.251Z,3.08
2022-08-12T11:12:55.346Z,2.85
2022-08-12T11:14:51.633Z,2.75
2022-08-12T11:17:44.145Z,2.80
2022-08-12T11:19:39.810Z,2.60
2022-08-12T11:21:57.713Z,2.90
2022-08-12T11:24:01.853Z,3.08
2022-08-12T11:26:12.081Z,3.13
2022-08-12T11:28:34.456Z,3.17
2022-08-12T11:30:45.965Z,3.38
2022-08-12T11:32:48.111Z,3.22
2022-08-12T11:34:51.832Z,2.90
2022-08-12T11:37:25.901Z,3.47
2022-08-12T11:41:52.835Z,3.55
2022-08-12T11:44:36.705Z,3.45
2022-08-12T11:46:44.757Z,3.47
2022-08-12T11:48:54.310Z,3.30
2022-08-12T11:50:57.247Z,2.95
2022-08-12T11:52:59.369Z,3.65
2022-08-12T11:55:08.596Z,3.90
2022-08-12T11:58:09.191Z,3.03
2022-08-12T12:02:01.568Z,3.53
2022-08-12T12:02:08.577Z,3.70
2022-08-12T12:04:10.659Z,3.50
2022-08-12T12:06:23.341Z,3.47
2022-08-12T12:08:37.091Z,3.55
2022-08-12T12:10:42.217Z,3.42
2022-08-12T12:12:51.328Z,3.60
2022-08-12T12:14:54.765Z,3.13
2022-08-12T12:16:57.774Z,3.30
2022-08-12T12:19:00.818Z,3.10
2022-08-12T12:21:08.458Z,3.30
2022-08-12T12:23:29.323Z,3.78
2022-08-12T12:26:07.442Z,3.45
2022-08-12T12:28:06.456Z,3.33
2022-08-12T12:30:18.218Z,3.42
2022-08-12T12:32:38.187Z,3.40
2022-08-12T12:35:13.756Z,3.55
2022-08-12T12:37:58.891Z,3.33
2022-08-12T12:39:55.038Z,3.67
2022-08-12T12:42:43.022Z,3.45
2022-08-12T12:44:30.174Z,3.17
2022-08-12T12:46:44.677Z,3.40
2022-08-12T12:48:46.648Z,3.65
2022-08-12T12:51:13.589Z,3.97
2022-08-12T12:54:06.599Z,3.50
2022-08-12T12:55:53.378Z,3.45
2022-08-12T12:58:00.926Z,3.47
2022-08-12T13:00:18.206Z,3.55
2022-08-12T13:02:31.499Z,3.50
2022-08-12T13:04:35.102Z,3.95
2022-08-12T13:06:42.727Z,3.92
2022-08-12T13:08:54.682Z,4.13
2022-08-12T13:11:03.742Z,3.47
2022-08-12T13:14:09.118Z,3.92
2022-08-12T13:15:45.024Z,4.03
2022-08-12T13:18:02.899Z,4.00
2022-08-12T13:20:08.982Z,3.92
2022-08-12T13:22:23.717Z,3.75
2022-08-12T13:24:25.991Z,4.00
2022-08-12T13:26:40.834Z,3.88
2022-08-12T13:28:55.974Z,3.67
2022-08-12T13:31:08.437Z,3.50
2022-08-12T13:33:17.526Z,3.40
2022-08-12T13:35:33.292Z,4.20
2022-08-12T13:37:43.933Z,3.88
2022-08-12T13:40:04.963Z,3.93
2022-08-12T13:42:14.950Z,3.45
2022-08-12T13:44:30.477Z,4.03
2022-08-12T13:46:59.011Z,3.78
2022-08-12T13:49:05.032Z,3.50
2022-08-12T13:51:08.229Z,3.90
2022-08-12T13:53:24.338Z,3.40
2022-08-12T13:55:31.318Z,4.15
2022-08-12T13:57:46.971Z,3.83
2022-08-12T13:59:55.233Z,3.20
2022-08-12T14:01:57.872Z,3.90
2022-08-12T14:04:00.029Z,3.80
2022-08-12T14:06:02.882Z,3.50
2022-08-12T14:08:07.126Z,3.95
2022-08-12T14:10:30.295Z,3.92
2022-08-12T14:12:37.215Z,4.30
2022-08-12T14:14:40.744Z,4.50
2022-08-12T14:16:49.092Z,5.85
2022-08-12T14:18:59.062Z,5.43
2022-08-12T14:21:11.978Z,5.22
2022-08-12T14:24:05.685Z,4.78
2022-08-12T14:25:43.788Z,5.30
2022-08-12T14:28:03.551Z,5.25
2022-08-12T14:30:16.022Z,5.60
2022-08-12T14:32:25.946Z,5.35
2022-08-12T14:34:28.448Z,5.30
2022-08-12T14:36:30.509Z,5.07
2022-08-12T14:38:39.847Z,5.13
2022-08-12T14:40:42.882Z,6.00
2022-08-12T14:42:44.875Z,6.47
2022-08-12T14:44:59.859Z,5.03
2022-08-12T14:47:08.097Z,5.25
2022-08-12T14:50:00.816Z,5.90
2022-08-12T14:52:38.829Z,5.32
2022-08-12T14:55:50.799Z,5.32
2022-08-12T14:56:58.751Z,4.70
2022-08-12T14:59:23.161Z,5.93
2022-08-12T15:01:39.749Z,7.53
2022-08-12T15:03:57.841Z,5.82
2022-08-12T15:06:05.908Z,5.97
2022-08-12T15:08:30.555Z,4.80
2022-08-12T15:10:36.429Z,5.82
2022-08-12T15:12:40.547Z,5.57
2022-08-12T15:14:45.801Z,5.10
2022-08-12T15:16:48.742Z,5.95
2022-08-12T15:18:59.158Z,5.13
2022-08-12T15:21:06.224Z,5.13
2022-08-12T15:23:17.742Z,6.57
2022-08-12T15:25:23.391Z,6.07
2022-08-12T15:27:31.588Z,5.20
2022-08-12T15:29:47.624Z,6.10
2022-08-12T15:32:02.113Z,5.63
2022-08-12T15:34:06.992Z,5.57
2022-08-12T15:36:36.569Z,5.82
2022-08-12T15:38:42.207Z,5.72
2022-08-12T15:40:49.730Z,6.35
2022-08-12T15:42:54.734Z,5.63
2022-08-12T15:44:56.852Z,5.40
2022-08-12T15:46:58.945Z,6.95
2022-08-12T15:49:01.948Z,5.53
2022-08-12T15:51:05.740Z,5.13
2022-08-12T15:53:14.195Z,5.75
2022-08-12T15:55:20.280Z,6.00
2022-08-12T15:57:24.759Z,5.78
2022-08-12T15:59:52.033Z,5.60
2022-08-12T16:01:50.871Z,6.18
2022-08-12T16:04:00.138Z,5.43
2022-08-12T16:06:11.750Z,5.55
2022-08-12T16:08:27.441Z,5.47
2022-08-12T16:10:31.151Z,6.90
2022-08-12T16:12:43.360Z,5.50
2022-08-12T16:14:46.616Z,5.93
2022-08-12T16:16:51.697Z,4.88
2022-08-12T16:19:01.999Z,4.28
2022-08-12T16:21:11.369Z,4.43
2022-08-12T16:23:51.477Z,4.45
2022-08-12T16:26:14.487Z,4.53
2022-08-12T16:28:17.790Z,5.43
2022-08-12T16:30:20.976Z,4.55
2022-08-12T16:32:39.399Z,4.70
2022-08-12T16:34:55.562Z,4.80
2022-08-12T16:37:03.308Z,5.20
2022-08-12T16:39:06.439Z,4.78
2022-08-12T16:41:08.636Z,5.15
2022-08-12T16:43:33.510Z,5.05
2022-08-12T16:46:07.902Z,5.53
2022-08-12T16:48:03.968Z,5.20
2022-08-12T16:50:08.226Z,4.82
2022-08-12T16:52:18.510Z,5.18
2022-08-12T16:54:36.162Z,5.20
2022-08-12T16:56:54.720Z,4.93
2022-08-12T16:58:59.870Z,5.88
2022-08-12T17:01:02.262Z,5.13
2022-08-12T17:03:05.178Z,6.05
2022-08-12T17:05:12.921Z,4.88
2022-08-12T17:07:19.554Z,5.78
2022-08-12T17:09:22.132Z,6.28
2022-08-12T17:11:25.100Z,6.20
2022-08-12T17:13:33.835Z,5.78
2022-08-12T17:15:56.810Z,5.80
2022-08-12T17:18:15.424Z,5.55
2022-08-12T17:20:36.164Z,6.30
2022-08-12T17:22:42.135Z,6.03
2022-08-12T17:24:55.590Z,5.38
2022-08-12T17:27:00.038Z,5.60
2022-08-12T17:29:03.402Z,5.57
2022-08-12T17:31:07.569Z,5.75
2022-08-12T17:33:24.930Z,6.10
2022-08-12T17:35:37.226Z,6.47
2022-08-12T17:37:48.779Z,6.72
2022-08-12T17:40:10.784Z,6.15
2022-08-12T17:42:32.798Z,5.70
2022-08-12T17:44:41.146Z,6.78
2022-08-12T17:46:45.673Z,6.45
2022-08-12T17:48:57.722Z,6.28
2022-08-12T17:51:02.941Z,6.07
2022-08-12T17:53:05.714Z,5.20
2022-08-12T17:55:40.909Z,5.35
2022-08-12T17:57:41.741Z,5.50
2022-08-12T17:59:47.856Z,5.93
2022-08-12T18:01:51.513Z,5.80
2022-08-12T18:04:05.788Z,5.95
2022-08-12T18:06:16.312Z,6.75
2022-08-12T18:08:22.287Z,5.75
2022-08-12T18:10:52.909Z,6.60
2022-08-12T18:13:01.520Z,6.45
2022-08-12T18:15:08.602Z,6.60
2022-08-12T18:17:12.216Z,6.32
2022-08-12T18:19:14.483Z,6.00
2022-08-12T18:21:16.667Z,6.13
2022-08-12T18:23:23.533Z,5.70
2022-08-12T18:26:14.493Z,6.45
2022-08-12T18:28:15.880Z,6.05
2022-08-12T18:30:29.498Z,6.65
2022-08-12T18:32:59.083Z,7.45
2022-08-12T18:35:10.999Z,7.38
2022-08-12T18:37:29.432Z,7.78
2022-08-12T18:39:54.853Z,8.40
2022-08-12T18:41:59.592Z,8.50
2022-08-12T18:44:12.304Z,8.93
2022-08-12T18:46:21.233Z,11.98
2022-08-12T18:48:24.894Z,9.95
2022-08-12T18:50:49.349Z,9.05
2022-08-12T18:52:55.068Z,9.60
2022-08-12T18:55:05.890Z,10.30
2022-08-12T18:57:19.430Z,10.60
2022-08-12T19:00:00.816Z,9.77
2022-08-12T19:02:17.127Z,9.45
2022-08-12T19:04:18.811Z,8.15
2022-08-12T19:06:21.301Z,8.05
2022-08-12T19:08:30.241Z,7.70
2022-08-12T19:10:33.179Z,7.53
2022-08-12T19:12:57.937Z,7.30
2022-08-12T19:15:04.156Z,6.97
2022-08-12T19:17:11.548Z,7.35
2022-08-12T19:19:18.255Z,7.18
2022-08-12T19:21:28.214Z,7.20
2022-08-12T19:23:34.992Z,6.93
2022-08-12T19:25:59.786Z,6.97
2022-08-12T19:28:05.377Z,6.00
2022-08-12T19:30:13.024Z,6.43
2022-08-12T19:32:23.659Z,5.72
2022-08-12T19:37:02.137Z,5.90
2022-08-12T19:39:15.103Z,5.57
2022-08-12T19:41:25.332Z,5.68
2022-08-12T19:44:00.416Z,6.40
2022-08-12T19:46:08.842Z,5.68
2022-08-12T19:48:17.587Z,6.72
2022-08-12T19:50:20.848Z,6.28
2022-08-12T19:52:27.988Z,6.47
2022-08-12T19:54:31.587Z,6.45
2022-08-12T19:56:35.536Z,5.75
2022-08-12T19:58:37.826Z,6.30
2022-08-12T20:00:43.677Z,6.00
2022-08-12T20:03:00.797Z,5.90
2022-08-12T20:06:06.056Z,6.10
2022-08-12T20:07:34.592Z,6.57
2022-08-12T20:09:50.625Z,5.93
2022-08-12T20:12:14.507Z,5.40
2022-08-12T20:14:19.509Z,5.53
2022-08-12T20:16:51.047Z,5.72
2022-08-12T20:18:53.414Z,6.07
2022-08-12T20:21:00.361Z,5.30
2022-08-12T20:23:06.366Z,5.45
2022-08-12T20:25:12.621Z,6.05
2022-08-12T20:27:29.411Z,5.65
2022-08-12T20:29:45.511Z,5.82
2022-08-12T20:31:54.156Z,7.45
2022-08-12T20:33:59.976Z,5.70
2022-08-12T20:36:40.171Z,5.85
2022-08-12T20:38:40.554Z,6.57
2022-08-12T20:40:47.956Z,6.05
2022-08-12T20:42:58.980Z,6.07
2022-08-12T20:45:02.179Z,6.43
2022-08-12T20:47:18.471Z,6.10
2022-08-12T20:49:25.555Z,5.90
2022-08-12T20:51:40.777Z,6.63
2022-08-12T20:54:04.333Z,6.47
2022-08-12T20:56:22.338Z,7.07
2022-08-12T20:58:40.011Z,7.00
2022-08-12T21:00:44.524Z,6.10
2022-08-12T21:02:50.119Z,6.53
2022-08-12T21:05:19.621Z,6.72
2022-08-12T21:07:23.526Z,6.78
2022-08-12T21:09:40.669Z,6.38
2022-08-12T21:11:44.136Z,6.18
2022-08-12T21:13:59.117Z,7.38
2022-08-12T21:16:02.704Z,6.00
2022-08-12T21:18:10.703Z,6.40
2022-08-12T21:20:26.881Z,6.75
2022-08-12T21:22:33.352Z,6.50
2022-08-12T21:24:46.725Z,6.50
2022-08-12T21:26:53.719Z,7.00
2022-08-12T21:29:01.614Z,6.75
2022-08-12T21:32:34.352Z,5.90
2022-08-12T21:33:30.763Z,7.28
2022-08-12T21:35:41.657Z,6.80
2022-08-12T21:37:52.916Z,6.60
2022-08-12T21:39:56.837Z,6.43
2022-08-12T21:42:02.435Z,6.55
2022-08-12T21:44:24.535Z,7.22
2022-08-12T21:46:38.966Z,7.32
2022-08-12T21:48:41.011Z,7.70
2022-08-12T21:50:46.114Z,7.40
2022-08-12T21:52:56.010Z,7.80
2022-08-12T21:55:01.802Z,7.10
2022-08-12T21:57:04.490Z,7.88
2022-08-12T21:59:16.533Z,7.85
2022-08-12T22:01:23.019Z,8.45
2022-08-12T22:04:03.716Z,7.75
2022-08-12T22:06:43.159Z,7.05
2022-08-12T22:09:04.165Z,6.20
2022-08-12T22:11:08.058Z,6.82
2022-08-12T22:14:02.030Z,7.10
2022-08-12T22:15:44.680Z,6.40
2022-08-12T22:17:55.297Z,6.22
2022-08-12T22:20:11.013Z,5.90
2022-08-12T22:22:14.861Z,6.00
2022-08-12T22:24:18.300Z,4.55
2022-08-12T22:26:37.496Z,4.70
2022-08-12T22:29:02.879Z,4.45
2022-08-12T22:31:15.223Z,4.28
2022-08-12T22:33:19.930Z,4.40
2022-08-12T22:35:47.463Z,4.18
2022-08-12T22:37:55.847Z,4.45
2022-08-12T22:39:58.014Z,4.15
2022-08-12T22:42:19.892Z,4.28
2022-08-12T22:44:54.225Z,3.65
2022-08-12T22:47:03.601Z,4.00
2022-08-12T22:49:06.521Z,4.30
2022-08-12T22:51:11.079Z,3.85
2022-08-12T22:53:16.641Z,3.70
2022-08-12T22:55:59.034Z,4.15
2022-08-12T22:57:53.923Z,4.30
2022-08-12T23:00:27.971Z,3.60
2022-08-12T23:02:31.166Z,3.90
2022-08-12T23:04:35.699Z,3.85
2022-08-12T23:06:37.701Z,4.20
2022-08-12T23:08:40.621Z,4.40
2022-08-12T23:10:45.028Z,4.18
2022-08-12T23:13:05.695Z,3.83
2022-08-12T23:15:15.871Z,3.80
2022-08-12T23:17:21.496Z,3.75
2022-08-12T23:19:45.864Z,3.95
2022-08-12T23:22:03.777Z,4.25
2022-08-12T23:24:18.438Z,4.70
2022-08-12T23:26:42.250Z,4.47
2022-08-12T23:29:25.983Z,4.57
2022-08-12T23:32:01.596Z,4.40
2022-08-12T23:34:00.722Z,4.78
2022-08-12T23:36:08.313Z,4.25
2022-08-12T23:38:31.007Z,5.15
2022-08-12T23:40:34.137Z,5.28
2022-08-12T23:42:44.204Z,4.65
2022-08-12T23:44:53.596Z,4.50
2022-08-12T23:47:00.003Z,4.88
2022-08-12T23:49:01.912Z,4.47
2022-08-12T23:51:21.709Z,4.90
2022-08-12T23:53:32.236Z,4.68
2022-08-12T23:55:38.250Z,4.60
2022-08-12T23:58:17.072Z,4.40
